Date,TemperatureHighF,TemperatureAvgF,TemperatureLowF,DewpointHighF,DewpointAvgF,DewpointLowF,HumidityHigh,HumidityAvg,HumidityLow,PressureMaxIn,PressureMinIn,WindSpeedMaxMPH,WindSpeedAvgMPH,GustSpeedMaxMPH,PrecipitationSumIn
2013-12-3,41.9,41.7,41.7,18.1,17.9,17.9,38,38,38,26.69,25.28,0,0,2,0.00
2013-12-10,21.6,20.8,19.4,-3.8,-6.5,-10.8,32,29,25,26.69,25.28,10,2,10,0.00
2013-12-11,25.9,18.0,11.8,0.0,-6.5,-11.2,35,33,27,26.69,26.69,8,1,8,0.00
2013-12-12,19.8,13.4,4.6,-6.7,-11.9,-17.6,34,31,25,26.69,26.69,8,1,8,0.00
2013-12-13,32.0,23.3,12.7,0.1,-4.3,-10.4,34,29,25,26.69,26.69,6,0,6,0.00
2013-12-14,25.7,21.3,18.0,-0.9,-3.5,-6.4,34,33,29,26.69,0.00,7,1,7,0.00
2013-12-15,24.4,20.4,17.4,0.3,-5.8,-10.2,35,31,27,26.69,26.69,9,1,9,0.00
2013-12-16,30.4,16.6,5.0,-3.1,-11.3,-20.4,31,28,23,26.69,26.69,6,0,6,0.00
2013-12-17,27.9,23.9,16.9,2.3,-2.0,-8.6,34,32,27,26.69,26.69,6,1,8,0.00
2013-12-18,34.5,26.8,22.8,2.2,-3.2,-8.3,33,27,23,26.69,26.69,8,1,8,0.00
2013-12-19,46.8,36.9,28.4,9.9,5.1,-4.8,31,26,22,26.69,26.69,6,0,6,0.43
2013-12-20,36.7,34.6,32.9,23.5,18.5,9.8,66,53,33,26.69,26.69,4,0,2,0.35
2013-12-21,34.5,33.3,32.2,23.6,21.5,15.6,65,62,50,26.69,26.69,5,0,5,0.47
2013-12-22,34.3,32.9,31.1,21.1,19.0,15.3,59,56,50,26.69,26.69,4,0,4,0.16
2013-12-23,30.9,24.8,13.3,15.3,3.5,-9.3,53,40,32,26.69,26.69,0,0,0,0.00
2013-12-24,32.9,13.1,7.5,0.5,-10.9,-14.5,35,33,23,26.69,26.69,0,0,0,0.00
2013-12-25,24.8,21.2,10.6,4.9,-2.8,-12.3,42,34,30,26.69,26.69,0,0,0,0.00
2013-12-26,31.6,26.1,23.0,6.4,0.9,-3.5,42,33,25,26.69,26.69,0,0,0,0.00
2013-12-27,32.0,30.9,27.7,6.1,4.8,2.9,35,33,32,26.69,26.69,0,0,0,0.00
2013-12-28,61.9,43.5,31.8,19.1,8.7,4.4,33,24,19,26.69,25.28,6,0,7,0.08
2013-12-29,42.9,32.2,21.2,9.0,2.8,-7.6,33,28,23,26.69,0.00,9,2,9,0.00
2013-12-30,23.4,18.7,14.2,-5.5,-9.6,-14.3,31,27,24,26.69,0.00,7,0,7,0.00
2013-12-31,21.0,15.4,13.5,-7.7,-11.0,-13.0,32,29,25,26.69,26.69,6,0,6,0.00